Chumstick, Washington
Current Conditions -  °F | °C
As of 2:55 AM on Friday 24 Oct 2014 (Local Time) from KEAT Reporting Station
Overcast Overcast  
Wind Chill: 43°   Ceiling: 9000
Heat Index: 45°   Visibility: 10mi
Dew Point: 38°   Wind: 5mph
Humidity: 76%   Direction: 300°WNW
Pressure: 30.03"   Gusts: NA
Location:  47.7866°N, 120.856°W
Report Text: KEAT 240955Z AUTO 30004KT 10SM OVC090 07/03 A3003 RMK AO2 SLP169 T00720033
Loading
Personal Weather Stations






























Interactive Weather Map
Tropical Storm Tracking
New forecast layout! Learn more

10-Day Weather Forecast

Advertisements
Track Severe Weather on mobile